Time;durP1;ratioP1;P1;durP2;ratioP2;P2;SDS_P1;SDS_P2;PMS_P1;PMS_P2;Temp;Humidity;BMP_temperature;BMP_pressure;BME280_temperature;BME280_humidity;BME280_pressure;Samples;Min_cycle;Max_cycle;Signal;HPM_P1;HPM_P2
2023/12/27 00:00:28;;;;;;;12.93;4.93;;;2.80;99.90;;;;;;4999719;28;20531;-74
2023/12/27 00:02:55;;;;;;;10.23;4.10;;;2.70;99.90;;;;;;5039482;28;20041;-75
2023/12/27 00:05:20;;;;;;;11.03;4.23;;;2.60;99.90;;;;;;5030183;28;20099;-75
2023/12/27 00:07:46;;;;;;;15.20;3.90;;;2.70;99.90;;;;;;5038589;28;20370;-74
2023/12/27 00:10:12;;;;;;;8.93;3.30;;;2.60;99.90;;;;;;5036335;28;20045;-74
2023/12/27 00:12:37;;;;;;;11.70;3.00;;;2.50;99.90;;;;;;5034726;28;20144;-74
2023/12/27 00:15:03;;;;;;;8.87;2.60;;;2.50;99.90;;;;;;5036043;28;20053;-74
2023/12/27 00:17:29;;;;;;;10.13;2.97;;;2.50;99.90;;;;;;5036287;28;20087;-74
2023/12/27 00:19:55;;;;;;;11.07;3.40;;;2.50;99.90;;;;;;5035218;28;20041;-74
2023/12/27 00:22:20;;;;;;;11.47;3.23;;;2.50;99.90;;;;;;5038054;28;20038;-74
2023/12/27 00:24:46;;;;;;;10.27;3.27;;;2.50;99.90;;;;;;5036526;28;20045;-74
2023/12/27 00:27:12;;;;;;;10.37;3.63;;;2.50;99.90;;;;;;5008916;28;20041;-74
2023/12/27 00:29:37;;;;;;;11.23;3.00;;;2.50;99.90;;;;;;5036641;28;20055;-74
2023/12/27 00:32:08;;;;;;;8.37;3.10;;;2.40;99.90;;;;;;5017213;28;20523;-74
2023/12/27 00:34:35;;;;;;;9.50;3.43;;;2.50;99.90;;;;;;5035646;28;20057;-74
2023/12/27 00:37:00;;;;;;;10.77;3.07;;;2.40;99.90;;;;;;5029811;28;20068;-74
2023/12/27 00:39:26;;;;;;;10.10;2.97;;;2.40;99.90;;;;;;5030077;28;20826;-73
2023/12/27 00:41:52;;;;;;;10.03;3.17;;;2.40;99.90;;;;;;5018668;28;20060;-74
2023/12/27 00:44:18;;;;;;;10.03;3.10;;;2.40;99.90;;;;;;5040144;28;20053;-73
2023/12/27 00:46:44;;;;;;;8.70;2.93;;;2.40;99.90;;;;;;5031925;28;20052;-74
2023/12/27 00:49:10;;;;;;;7.47;2.90;;;2.40;99.90;;;;;;5035896;28;20042;-74
2023/12/27 00:51:35;;;;;;;10.23;3.40;;;2.40;99.90;;;;;;5036348;28;20040;-74
2023/12/27 00:54:01;;;;;;;10.10;2.97;;;2.30;99.90;;;;;;5034593;28;20048;-73
2023/12/27 00:56:27;;;;;;;9.40;2.83;;;2.30;99.90;;;;;;5037253;28;20053;-74
2023/12/27 00:58:53;;;;;;;13.70;3.20;;;2.30;99.90;;;;;;5037466;28;20121;-74
2023/12/27 01:01:18;;;;;;;10.30;2.87;;;2.30;99.90;;;;;;5028381;28;20055;-74
2023/12/27 01:03:44;;;;;;;9.50;2.70;;;2.30;99.90;;;;;;5028557;28;20044;-74
2023/12/27 01:06:10;;;;;;;11.40;3.03;;;2.20;99.90;;;;;;5012019;28;20057;-74
2023/12/27 01:08:37;;;;;;;10.97;3.20;;;2.20;99.90;;;;;;5034600;28;20109;-73
2023/12/27 01:11:03;;;;;;;6.43;2.67;;;2.20;99.90;;;;;;5014380;28;20053;-74
2023/12/27 01:13:28;;;;;;;12.03;3.43;;;2.10;99.90;;;;;;5031622;28;20072;-74
2023/12/27 01:15:55;;;;;;;8.00;2.60;;;2.10;99.90;;;;;;5029610;28;20611;-74
2023/12/27 01:18:21;;;;;;;8.23;2.57;;;2.00;99.90;;;;;;5031751;28;20057;-74
2023/12/27 01:20:46;;;;;;;7.17;2.90;;;2.00;99.90;;;;;;5009170;28;20050;-74
2023/12/27 01:23:12;;;;;;;6.80;2.37;;;2.00;99.90;;;;;;5035082;28;20044;-74
2023/12/27 01:25:38;;;;;;;6.87;2.63;;;2.00;99.90;;;;;;5013471;28;20133;-74
2023/12/27 01:28:04;;;;;;;11.43;2.90;;;1.90;99.90;;;;;;5016286;28;20056;-74
2023/12/27 01:30:30;;;;;;;4.60;2.20;;;1.90;99.90;;;;;;5017020;28;20101;-74
2023/12/27 01:32:55;;;;;;;11.70;4.13;;;2.00;99.90;;;;;;5019260;28;20045;-73
2023/12/27 01:35:21;;;;;;;7.63;2.90;;;1.80;99.90;;;;;;5016987;28;20276;-74
2023/12/27 01:37:47;;;;;;;10.33;2.70;;;1.80;99.90;;;;;;5012235;28;20422;-74
2023/12/27 01:40:14;;;;;;;6.33;2.63;;;1.80;99.90;;;;;;5032880;28;20138;-74
2023/12/27 01:42:40;;;;;;;9.93;3.27;;;1.80;99.90;;;;;;5035525;28;20053;-73
2023/12/27 01:45:06;;;;;;;13.50;3.07;;;1.90;99.90;;;;;;5032163;28;20045;-74
2023/12/27 01:47:33;;;;;;;9.57;3.23;;;1.90;99.90;;;;;;5018572;28;20124;-75
2023/12/27 01:49:59;;;;;;;9.00;3.33;;;1.90;99.90;;;;;;5034981;28;20056;-74
2023/12/27 01:52:26;;;;;;;11.90;2.97;;;2.00;99.90;;;;;;5031818;28;20072;-74
2023/12/27 01:54:52;;;;;;;9.67;3.23;;;2.00;99.90;;;;;;5032878;28;20514;-75
2023/12/27 01:57:19;;;;;;;11.17;3.20;;;2.00;99.90;;;;;;5030255;28;20132;-74
2023/12/27 01:59:48;;;;;;;10.83;3.63;;;2.00;99.90;;;;;;5032289;28;20053;-74
2023/12/27 02:02:14;;;;;;;10.03;3.20;;;2.00;99.90;;;;;;5032780;28;20091;-74
2023/12/27 02:04:40;;;;;;;8.50;2.97;;;2.00;99.90;;;;;;5035143;28;20281;-75
2023/12/27 02:07:06;;;;;;;7.73;3.27;;;2.00;99.90;;;;;;5029263;28;20041;-74
2023/12/27 02:09:33;;;;;;;8.20;3.20;;;2.00;99.90;;;;;;5036438;28;20065;-74
2023/12/27 02:11:58;;;;;;;10.83;3.10;;;1.90;99.90;;;;;;5016598;28;20049;-74
2023/12/27 02:14:24;;;;;;;9.77;3.17;;;2.00;99.90;;;;;;5035456;28;20588;-72
2023/12/27 02:16:50;;;;;;;9.10;3.80;;;2.00;99.90;;;;;;5035394;28;20475;-74
2023/12/27 02:19:23;;;;;;;11.33;3.37;;;2.00;99.90;;;;;;5035463;28;20056;-74
2023/12/27 02:21:49;;;;;;;9.10;3.10;;;2.00;99.90;;;;;;5029442;28;20057;-74
2023/12/27 02:24:17;;;;;;;11.63;3.60;;;2.00;99.90;;;;;;5029053;28;20079;-74
2023/12/27 02:26:44;;;;;;;11.47;4.73;;;2.00;99.90;;;;;;5036829;28;20428;-74
2023/12/27 02:29:09;;;;;;;13.30;4.83;;;2.00;99.90;;;;;;5016938;28;20046;-74
2023/12/27 02:31:35;;;;;;;8.10;3.40;;;2.00;99.90;;;;;;5037766;28;20115;-74
2023/12/27 02:34:01;;;;;;;8.90;3.40;;;1.90;99.90;;;;;;5022160;28;20075;-74
2023/12/27 02:36:27;;;;;;;9.63;2.87;;;1.80;99.90;;;;;;5018021;28;20084;-74
2023/12/27 02:38:52;;;;;;;8.67;3.83;;;1.70;99.90;;;;;;5041435;28;20049;-74
2023/12/27 02:41:18;;;;;;;13.83;3.80;;;1.70;99.90;;;;;;5034235;28;20049;-74
2023/12/27 02:43:44;;;;;;;14.40;4.27;;;1.60;99.90;;;;;;5038943;28;20049;-74
2023/12/27 02:46:09;;;;;;;11.07;3.60;;;1.60;99.90;;;;;;5039026;28;20052;-73
2023/12/27 02:48:35;;;;;;;15.23;4.10;;;1.60;99.90;;;;;;5020431;28;20071;-74
2023/12/27 02:51:01;;;;;;;11.63;3.47;;;1.60;99.90;;;;;;5039761;28;20056;-74
2023/12/27 02:53:26;;;;;;;9.37;4.37;;;1.60;99.90;;;;;;5033563;28;20037;-74
2023/12/27 02:55:52;;;;;;;14.80;4.63;;;1.60;99.90;;;;;;5037480;28;20060;-74
2023/12/27 02:58:18;;;;;;;12.10;5.20;;;1.60;99.90;;;;;;5037929;28;20125;-74
2023/12/27 03:00:46;;;;;;;11.33;5.07;;;1.70;99.90;;;;;;5039769;28;20041;-74
2023/12/27 03:03:12;;;;;;;5.77;3.97;;;1.70;99.90;;;;;;5018036;28;20053;-74
2023/12/27 03:05:38;;;;;;;13.97;5.63;;;1.70;99.90;;;;;;5039285;28;20041;-74
2023/12/27 03:08:04;;;;;;;11.53;4.63;;;1.80;99.90;;;;;;5036424;28;20037;-73
2023/12/27 03:10:30;;;;;;;11.63;4.60;;;1.80;99.90;;;;;;5036874;28;20037;-74
2023/12/27 03:12:56;;;;;;;11.10;4.40;;;1.80;99.90;;;;;;5034522;28;20042;-74
2023/12/27 03:15:21;;;;;;;8.67;3.93;;;1.70;99.90;;;;;;5013962;28;20054;-74
2023/12/27 03:17:47;;;;;;;11.07;4.33;;;1.70;99.90;;;;;;5018387;28;20057;-74
2023/12/27 03:20:13;;;;;;;10.40;4.53;;;1.70;99.90;;;;;;5016281;28;20064;-74
2023/12/27 03:22:39;;;;;;;12.03;5.37;;;1.70;99.90;;;;;;5034425;28;20045;-73
2023/12/27 03:25:05;;;;;;;9.77;4.67;;;1.70;99.90;;;;;;5035486;28;20410;-74
2023/12/27 03:27:30;;;;;;;15.80;6.43;;;1.70;99.90;;;;;;5036847;28;20042;-74
2023/12/27 03:29:56;;;;;;;13.47;5.57;;;1.70;99.90;;;;;;5038903;28;20076;-74
2023/12/27 03:32:24;;;;;;;11.30;5.33;;;1.70;99.90;;;;;;5038203;28;20075;-74
2023/12/27 03:34:50;;;;;;;13.00;6.17;;;1.80;99.90;;;;;;5035418;28;20037;-73
2023/12/27 03:37:15;;;;;;;11.43;5.40;;;1.80;99.90;;;;;;5035267;28;20033;-73
2023/12/27 03:39:43;;;;;;;10.57;5.23;;;1.90;99.90;;;;;;5031005;28;20064;-74
2023/12/27 03:42:14;;;;;;;12.93;5.77;;;1.90;99.90;;;;;;5040269;28;20502;-74
2023/12/27 03:44:42;;;;;;;11.95;5.55;;;1.90;99.90;;;;;;5021429;28;20049;-74
2023/12/27 03:47:07;;;;;;;11.07;5.47;;;2.00;99.90;;;;;;5034341;28;20038;-73
2023/12/27 03:49:33;;;;;;;10.77;4.77;;;1.90;99.90;;;;;;5034704;28;20041;-73
2023/12/27 03:51:59;;;;;;;11.30;5.00;;;1.90;99.90;;;;;;5035372;28;20073;-74
2023/12/27 03:54:24;;;;;;;9.77;5.20;;;1.90;99.90;;;;;;5036727;28;20607;-74
2023/12/27 03:56:50;;;;;;;12.53;5.20;;;1.90;99.90;;;;;;5038996;28;20068;-74
2023/12/27 03:59:16;;;;;;;18.53;5.97;;;1.90;99.90;;;;;;5036497;28;20044;-74
2023/12/27 04:01:42;;;;;;;12.73;5.43;;;1.90;99.90;;;;;;5035716;28;20064;-74
2023/12/27 04:04:08;;;;;;;12.80;5.40;;;1.90;99.90;;;;;;5039590;28;20055;-74
2023/12/27 04:06:33;;;;;;;8.60;4.10;;;1.80;99.90;;;;;;5039230;28;20366;-74
2023/12/27 04:08:59;;;;;;;12.73;5.03;;;1.80;99.90;;;;;;5037719;28;20076;-74
2023/12/27 04:11:25;;;;;;;11.67;5.93;;;1.80;99.90;;;;;;5038641;28;20501;-74
2023/12/27 04:13:50;;;;;;;15.17;5.80;;;1.80;99.90;;;;;;5017882;28;20045;-74
2023/12/27 04:16:16;;;;;;;15.43;5.80;;;1.70;99.90;;;;;;5017175;28;20061;-74
2023/12/27 04:18:42;;;;;;;12.83;6.00;;;1.70;99.90;;;;;;5033515;28;20064;-74
2023/12/27 04:21:07;;;;;;;14.17;6.30;;;1.70;99.90;;;;;;4998225;28;20118;-73
2023/12/27 04:23:33;;;;;;;13.30;6.17;;;1.70;99.90;;;;;;4992087;28;20056;-74
2023/12/27 04:25:59;;;;;;;11.43;5.97;;;1.70;99.90;;;;;;5031631;28;20061;-74
2023/12/27 04:28:24;;;;;;;11.00;6.53;;;1.70;99.90;;;;;;5031780;28;20080;-73
2023/12/27 04:30:50;;;;;;;13.77;6.53;;;1.70;99.90;;;;;;5015615;28;20682;-74
2023/12/27 04:33:16;;;;;;;12.87;6.80;;;1.70;99.90;;;;;;5036124;28;20873;-72
2023/12/27 04:35:42;;;;;;;12.30;6.53;;;1.70;99.90;;;;;;5035189;28;20507;-74
2023/12/27 04:38:13;;;;;;;13.60;6.90;;;1.70;99.90;;;;;;5037988;28;20458;-74
2023/12/27 04:40:44;;;;;;;13.57;6.27;;;1.60;99.90;;;;;;5019394;28;20053;-74
2023/12/27 04:43:10;;;;;;;13.43;6.43;;;1.70;99.90;;;;;;5014138;28;20092;-74
2023/12/27 04:45:35;;;;;;;17.47;7.57;;;1.60;99.90;;;;;;5036883;28;20037;-74
2023/12/27 04:48:01;;;;;;;17.10;7.57;;;1.60;99.90;;;;;;5000335;28;20065;-73
2023/12/27 04:50:27;;;;;;;18.23;7.77;;;1.60;99.90;;;;;;5034646;28;20041;-74
2023/12/27 04:52:52;;;;;;;13.93;7.80;;;1.60;99.90;;;;;;5048482;28;20044;-74
2023/12/27 04:55:18;;;;;;;15.87;7.87;;;1.70;99.90;;;;;;5029995;28;20044;-74
2023/12/27 04:57:44;;;;;;;12.90;7.30;;;1.70;99.90;;;;;;5027057;28;20542;-77
2023/12/27 05:00:10;;;;;;;15.70;8.07;;;1.80;99.90;;;;;;5023487;28;20520;-74
2023/12/27 05:02:36;;;;;;;14.13;7.80;;;1.80;99.90;;;;;;5047083;28;20049;-74
2023/12/27 05:05:02;;;;;;;9.47;6.60;;;1.80;99.90;;;;;;5020913;28;20037;-74
2023/12/27 05:07:27;;;;;;;15.90;7.73;;;1.80;99.90;;;;;;5043909;28;20049;-73
2023/12/27 05:09:53;;;;;;;14.27;7.30;;;1.90;99.90;;;;;;5046163;28;20189;-74
2023/12/27 05:12:19;;;;;;;14.87;7.50;;;1.80;99.90;;;;;;5045513;28;20489;-74
2023/12/27 05:14:46;;;;;;;15.43;7.23;;;1.90;99.90;;;;;;5044956;28;20169;-74
2023/12/27 05:17:12;;;;;;;14.40;6.93;;;1.90;99.90;;;;;;5012033;28;20135;-74
2023/12/27 05:19:39;;;;;;;9.13;6.80;;;1.90;99.90;;;;;;5009129;28;20077;-74
2023/12/27 05:22:04;;;;;;;11.07;6.93;;;1.90;99.90;;;;;;5048587;28;20324;-74
2023/12/27 05:24:30;;;;;;;17.60;7.17;;;2.00;99.90;;;;;;5043509;28;20052;-73
2023/12/27 05:26:56;;;;;;;10.97;7.37;;;2.00;99.90;;;;;;5037720;28;20064;-73
2023/12/27 05:29:22;;;;;;;13.63;6.90;;;2.00;99.90;;;;;;5049407;28;20132;-73
2023/12/27 05:31:47;;;;;;;12.27;6.53;;;1.90;99.90;;;;;;5042968;28;20213;-74
2023/12/27 05:34:13;;;;;;;13.80;7.57;;;1.90;99.90;;;;;;5042647;28;20141;-73
2023/12/27 05:36:39;;;;;;;13.37;7.77;;;1.90;99.90;;;;;;5038261;28;20056;-73
2023/12/27 05:39:04;;;;;;;16.63;7.57;;;1.90;99.90;;;;;;5045076;28;20042;-73
2023/12/27 05:41:30;;;;;;;17.40;8.17;;;1.90;99.90;;;;;;5045235;28;20049;-74
2023/12/27 05:43:56;;;;;;;13.80;7.03;;;1.90;99.90;;;;;;5046638;28;20049;-74
2023/12/27 05:46:22;;;;;;;16.17;7.60;;;1.90;99.90;;;;;;5047350;28;20051;-74
2023/12/27 05:48:48;;;;;;;12.67;7.47;;;1.90;99.90;;;;;;5022992;28;20083;-74
2023/12/27 05:51:13;;;;;;;20.13;8.37;;;1.90;99.90;;;;;;5049655;28;20059;-73
2023/12/27 05:53:39;;;;;;;13.57;7.70;;;2.00;99.90;;;;;;5030739;28;20037;-74
2023/12/27 05:56:06;;;;;;;13.43;7.50;;;1.90;99.90;;;;;;5048583;28;20042;-74
2023/12/27 05:58:32;;;;;;;13.03;7.73;;;1.90;99.90;;;;;;5020752;28;20052;-74
2023/12/27 06:00:57;;;;;;;15.40;8.17;;;1.90;99.90;;;;;;5027001;28;20049;-73
2023/12/27 06:03:23;;;;;;;12.27;7.77;;;1.90;99.90;;;;;;5034951;28;20515;-74
2023/12/27 06:05:49;;;;;;;14.63;7.60;;;1.90;99.90;;;;;;5042003;28;20523;-74
2023/12/27 06:08:18;;;;;;;12.17;7.67;;;2.00;99.90;;;;;;5040843;28;20043;-73
2023/12/27 06:10:45;;;;;;;10.77;6.73;;;2.00;99.90;;;;;;5044804;28;20059;-74
2023/12/27 06:13:10;;;;;;;14.63;8.07;;;2.00;99.90;;;;;;5040658;28;20049;-74
2023/12/27 06:15:36;;;;;;;9.53;7.03;;;2.10;99.90;;;;;;5043751;28;20080;-74
2023/12/27 06:18:02;;;;;;;13.83;9.03;;;2.10;99.90;;;;;;5046772;28;20080;-73
2023/12/27 06:20:28;;;;;;;13.70;9.53;;;2.20;99.90;;;;;;5040189;28;20068;-74
2023/12/27 06:22:53;;;;;;;16.87;9.60;;;2.20;99.90;;;;;;5043265;28;20064;-74
2023/12/27 06:25:19;;;;;;;20.07;10.77;;;2.30;99.90;;;;;;5020782;28;20045;-74
2023/12/27 06:27:45;;;;;;;17.17;11.03;;;2.40;99.90;;;;;;5033629;28;20045;-74
2023/12/27 06:30:11;;;;;;;14.50;10.63;;;2.40;99.90;;;;;;5038271;28;20049;-74
2023/12/27 06:32:37;;;;;;;17.03;10.63;;;2.50;99.90;;;;;;5044298;28;20052;-72
2023/12/27 06:35:03;;;;;;;18.00;10.67;;;2.50;99.90;;;;;;5040561;28;20539;-73
2023/12/27 06:37:29;;;;;;;18.87;12.47;;;2.60;99.90;;;;;;5035197;28;20052;-72
2023/12/27 06:39:54;;;;;;;15.83;11.17;;;2.70;99.90;;;;;;5036875;28;20053;-73
2023/12/27 06:42:21;;;;;;;12.63;10.10;;;2.70;99.90;;;;;;5043801;28;20112;-74
2023/12/27 06:44:47;;;;;;;17.40;10.90;;;2.70;99.90;;;;;;5025799;28;20041;-73
2023/12/27 06:47:12;;;;;;;20.40;13.13;;;2.70;99.90;;;;;;5017593;28;20104;-73
2023/12/27 06:49:38;;;;;;;20.33;13.43;;;2.80;99.90;;;;;;5025397;28;20073;-74
2023/12/27 06:52:04;;;;;;;16.43;11.50;;;2.80;99.90;;;;;;5021795;28;20310;-73
2023/12/27 06:54:30;;;;;;;18.43;12.77;;;2.80;99.90;;;;;;5037029;28;20042;-74
2023/12/27 06:56:55;;;;;;;13.87;11.83;;;2.80;99.90;;;;;;5043767;28;20148;-72
2023/12/27 06:59:21;;;;;;;15.27;11.57;;;2.80;99.90;;;;;;5042490;28;20069;-74
2023/12/27 07:01:47;;;;;;;17.40;11.87;;;2.90;99.90;;;;;;5032796;28;20045;-74
2023/12/27 07:04:13;;;;;;;17.00;11.60;;;2.90;99.90;;;;;;5019515;28;20049;-74
2023/12/27 07:06:39;;;;;;;17.17;12.17;;;2.90;99.90;;;;;;5043107;28;20033;-73
2023/12/27 07:09:04;;;;;;;15.87;11.73;;;2.90;99.90;;;;;;5041229;28;20041;-74
2023/12/27 07:11:30;;;;;;;16.43;12.07;;;2.90;99.90;;;;;;5012096;28;20069;-74
2023/12/27 07:13:56;;;;;;;19.87;12.77;;;3.00;99.90;;;;;;5049571;28;20045;-73
2023/12/27 07:16:22;;;;;;;20.07;13.87;;;3.00;99.90;;;;;;5052356;28;20129;-74
2023/12/27 07:18:47;;;;;;;19.57;11.47;;;3.00;99.90;;;;;;5031808;28;20065;-73
2023/12/27 07:21:13;;;;;;;20.80;13.43;;;3.00;99.90;;;;;;5026267;28;20096;-73
2023/12/27 07:23:39;;;;;;;20.63;14.77;;;3.00;99.90;;;;;;5049272;28;20126;-73
2023/12/27 07:26:04;;;;;;;22.30;13.10;;;3.00;99.90;;;;;;5034505;28;20472;-72
2023/12/27 07:28:30;;;;;;;18.67;13.00;;;3.00;99.90;;;;;;5037478;28;20094;-74
2023/12/27 07:30:57;;;;;;;20.23;12.87;;;3.00;99.90;;;;;;5047826;28;20053;-74
2023/12/27 07:33:23;;;;;;;23.20;14.13;;;3.00;99.90;;;;;;5046534;28;20052;-74
2023/12/27 07:35:48;;;;;;;24.17;14.27;;;3.10;99.90;;;;;;5042834;28;20052;-74
2023/12/27 07:38:14;;;;;;;25.73;16.07;;;3.00;99.90;;;;;;5026007;28;20076;-73
2023/12/27 07:40:41;;;;;;;17.97;13.37;;;3.10;99.90;;;;;;5042061;28;20084;-73
2023/12/27 07:43:09;;;;;;;21.10;13.63;;;3.10;99.90;;;;;;5026652;28;20046;-74
2023/12/27 07:45:35;;;;;;;24.80;14.03;;;3.10;99.90;;;;;;5045733;28;20468;-73
2023/12/27 07:48:01;;;;;;;21.40;14.97;;;3.10;99.90;;;;;;5041083;28;20063;-74
2023/12/27 07:50:26;;;;;;;19.60;13.80;;;3.20;99.90;;;;;;5025467;28;20406;-74
2023/12/27 07:52:52;;;;;;;19.13;14.00;;;3.20;99.90;;;;;;5028547;28;20138;-73
2023/12/27 07:55:18;;;;;;;23.13;15.83;;;3.20;99.90;;;;;;5043767;28;20037;-73
2023/12/27 07:57:45;;;;;;;21.03;13.77;;;3.20;99.90;;;;;;5035501;28;20053;-74
2023/12/27 08:00:15;;;;;;;21.63;13.40;;;3.30;99.90;;;;;;5042020;28;20539;-73
2023/12/27 08:02:41;;;;;;;18.17;13.60;;;3.30;99.90;;;;;;5035865;28;20055;-73
2023/12/27 08:05:07;;;;;;;21.10;12.90;;;3.30;99.90;;;;;;5022354;28;20100;-72
2023/12/27 08:07:33;;;;;;;19.87;12.23;;;3.30;99.90;;;;;;5039368;28;21865;-74
2023/12/27 08:09:58;;;;;;;20.60;12.53;;;3.30;99.90;;;;;;5032220;28;20566;-73
2023/12/27 08:12:24;;;;;;;18.17;12.63;;;3.40;99.90;;;;;;5032795;28;20076;-73
2023/12/27 08:14:50;;;;;;;20.10;12.23;;;3.40;99.90;;;;;;5031925;28;20152;-73
2023/12/27 08:17:17;;;;;;;18.67;12.30;;;3.40;99.90;;;;;;5029913;28;20045;-72
2023/12/27 08:19:42;;;;;;;17.20;12.33;;;3.50;99.90;;;;;;5024434;28;20155;-72
2023/12/27 08:22:08;;;;;;;18.37;11.83;;;3.40;99.90;;;;;;5037144;28;20053;-70
2023/12/27 08:24:34;;;;;;;22.57;12.57;;;3.50;99.90;;;;;;5037744;28;20041;-71
2023/12/27 08:26:59;;;;;;;19.80;11.03;;;3.50;99.90;;;;;;5039086;28;20087;-72
2023/12/27 08:29:25;;;;;;;17.47;10.33;;;3.50;99.90;;;;;;5042257;28;20052;-73
2023/12/27 08:31:51;;;;;;;24.30;11.80;;;3.50;99.90;;;;;;5039626;28;20431;-73
2023/12/27 08:34:16;;;;;;;16.73;10.70;;;3.60;99.90;;;;;;5034348;28;20056;-73
2023/12/27 08:36:45;;;;;;;21.87;10.77;;;3.60;99.90;;;;;;5035003;28;20080;-73
2023/12/27 08:39:11;;;;;;;21.87;10.63;;;3.70;99.90;;;;;;5018516;28;20053;-74
2023/12/27 08:41:37;;;;;;;16.20;9.57;;;3.70;99.90;;;;;;5034980;28;20092;-74
2023/12/27 08:44:03;;;;;;;27.07;13.67;;;3.70;99.90;;;;;;5038698;28;20045;-74
2023/12/27 08:46:28;;;;;;;29.10;18.47;;;3.80;99.90;;;;;;5012190;28;20049;-74
2023/12/27 08:48:54;;;;;;;22.90;12.10;;;3.80;99.90;;;;;;5040318;28;20049;-74
2023/12/27 08:51:20;;;;;;;21.93;11.63;;;3.90;99.90;;;;;;5036900;28;20042;-74
2023/12/27 08:53:45;;;;;;;34.50;26.40;;;3.90;99.90;;;;;;5037587;28;20642;-73
2023/12/27 08:56:11;;;;;;;40.97;30.90;;;3.90;99.90;;;;;;5037871;28;20060;-74
2023/12/27 08:58:37;;;;;;;22.73;10.43;;;4.00;99.90;;;;;;5014757;28;20041;-74
2023/12/27 09:01:03;;;;;;;19.33;10.97;;;4.00;99.90;;;;;;5034141;28;20045;-74
2023/12/27 09:03:29;;;;;;;20.43;10.47;;;4.00;99.90;;;;;;5033549;28;20500;-73
2023/12/27 09:05:55;;;;;;;20.00;11.60;;;4.10;99.90;;;;;;5038908;28;20059;-74
2023/12/27 09:08:20;;;;;;;20.40;9.60;;;4.10;99.90;;;;;;5043738;28;20093;-74
2023/12/27 09:10:46;;;;;;;18.27;11.07;;;4.10;99.90;;;;;;5041367;28;20041;-74
2023/12/27 09:13:12;;;;;;;17.60;10.50;;;4.10;99.90;;;;;;5038743;28;20049;-74
2023/12/27 09:15:37;;;;;;;18.40;9.87;;;4.20;99.90;;;;;;5038070;28;20053;-74
2023/12/27 09:18:03;;;;;;;22.80;10.80;;;4.20;99.90;;;;;;5020243;28;20053;-71
2023/12/27 09:20:29;;;;;;;16.07;9.70;;;4.20;99.90;;;;;;5039882;28;20034;-71
2023/12/27 09:22:55;;;;;;;19.97;10.93;;;4.20;99.90;;;;;;5044548;28;20045;-70
2023/12/27 09:25:20;;;;;;;20.70;9.93;;;4.30;99.90;;;;;;5045735;28;20107;-71
2023/12/27 09:27:46;;;;;;;16.00;9.03;;;4.30;99.90;;;;;;5025500;28;20077;-70
2023/12/27 09:30:13;;;;;;;16.30;9.03;;;4.30;99.90;;;;;;5048900;28;20052;-70
2023/12/27 09:32:40;;;;;;;20.40;11.17;;;4.30;99.90;;;;;;5048388;28;20687;-71
2023/12/27 09:35:06;;;;;;;18.00;11.20;;;4.30;99.90;;;;;;5028568;28;20045;-70
2023/12/27 09:37:32;;;;;;;17.57;10.70;;;4.40;99.90;;;;;;5033295;28;20069;-70
2023/12/27 09:39:57;;;;;;;16.77;9.67;;;4.40;99.90;;;;;;5024098;28;20041;-70
2023/12/27 09:42:23;;;;;;;18.37;8.73;;;4.40;99.90;;;;;;5035381;28;20060;-71
2023/12/27 09:44:52;;;;;;;18.87;10.13;;;4.40;99.90;;;;;;5040930;28;20045;-72
2023/12/27 09:47:18;;;;;;;18.53;10.27;;;4.50;99.90;;;;;;5046704;28;20049;-71
2023/12/27 09:49:44;;;;;;;18.63;9.80;;;4.50;99.90;;;;;;5041413;28;20436;-73
2023/12/27 09:52:11;;;;;;;17.53;9.90;;;4.50;99.90;;;;;;5047589;28;20064;-71
2023/12/27 09:54:36;;;;;;;17.87;9.67;;;4.50;99.90;;;;;;5036491;28;20029;-71
2023/12/27 09:57:04;;;;;;;15.93;10.80;;;4.60;99.90;;;;;;5031951;28;20056;-69
2023/12/27 09:59:38;;;;;;;17.60;9.90;;;4.60;99.90;;;;;;5030776;28;20562;-69
2023/12/27 10:02:11;;;;;;;22.63;10.60;;;4.60;99.90;;;;;;5028352;28;20097;-75
2023/12/27 10:05:09;;;;;;;18.80;10.10;;;4.70;99.90;;;;;;5033794;28;20374;-74
2023/12/27 10:07:39;;;;;;;18.33;10.67;;;4.70;99.90;;;;;;5039752;28;20049;-72
2023/12/27 10:10:07;;;;;;;16.37;10.57;;;4.70;99.90;;;;;;5047863;28;20044;-73
2023/12/27 10:12:33;;;;;;;19.03;10.87;;;4.80;99.90;;;;;;5043595;28;20045;-73
2023/12/27 10:14:59;;;;;;;25.07;12.20;;;4.80;99.90;;;;;;5030985;28;20118;-71
2023/12/27 10:17:25;;;;;;;19.60;11.00;;;4.90;99.90;;;;;;5040735;28;20057;-71
2023/12/27 10:19:50;;;;;;;23.20;10.80;;;4.90;99.90;;;;;;5040057;28;20634;-71
2023/12/27 10:22:17;;;;;;;21.90;10.80;;;4.90;99.90;;;;;;5040960;28;20050;-73
2023/12/27 10:24:43;;;;;;;17.63;11.20;;;5.00;99.90;;;;;;5038280;28;20053;-74
2023/12/27 10:27:09;;;;;;;19.70;11.10;;;5.00;99.90;;;;;;5038101;28;20045;-72
2023/12/27 10:29:36;;;;;;;20.50;10.90;;;5.00;99.90;;;;;;5038419;28;20080;-74
2023/12/27 10:32:03;;;;;;;20.90;12.67;;;5.10;99.90;;;;;;5045624;28;20424;-70
2023/12/27 10:34:29;;;;;;;25.57;15.43;;;5.10;99.90;;;;;;5038992;28;20052;-71
2023/12/27 10:36:56;;;;;;;21.70;12.90;;;5.20;99.90;;;;;;5017068;28;20109;-73
2023/12/27 10:39:23;;;;;;;22.20;15.50;;;5.20;99.90;;;;;;5037870;28;20456;-72
2023/12/27 10:41:52;;;;;;;21.67;11.83;;;5.20;99.90;;;;;;5031351;28;20057;-74
2023/12/27 10:44:18;;;;;;;28.63;14.27;;;5.30;99.90;;;;;;5036243;28;20049;-73
2023/12/27 10:46:44;;;;;;;23.53;12.60;;;5.30;99.90;;;;;;5048380;28;20083;-71
2023/12/27 10:49:15;;;;;;;20.33;13.00;;;5.30;99.90;;;;;;5026811;28;20129;-72
2023/12/27 10:51:42;;;;;;;27.83;14.63;;;5.40;99.90;;;;;;5047378;28;20038;-72
2023/12/27 10:54:12;;;;;;;26.23;14.33;;;5.40;99.90;;;;;;5050648;28;20076;-71
2023/12/27 10:56:40;;;;;;;17.53;10.73;;;5.40;99.90;;;;;;5045548;28;20045;-74
2023/12/27 10:59:09;;;;;;;17.90;11.57;;;5.40;99.90;;;;;;5044976;28;20049;-73
2023/12/27 11:01:37;;;;;;;19.53;10.53;;;5.40;99.90;;;;;;5031371;28;20053;-73
2023/12/27 11:04:11;;;;;;;16.67;10.03;;;5.40;99.90;;;;;;5032305;28;20045;-74
2023/12/27 11:06:38;;;;;;;46.47;23.43;;;5.40;99.90;;;;;;5018500;28;20049;-72
2023/12/27 11:09:07;;;;;;;25.57;18.47;;;5.40;99.90;;;;;;5034239;28;20041;-73
2023/12/27 11:11:40;;;;;;;24.87;13.83;;;5.40;99.90;;;;;;5038291;28;20045;-73
2023/12/27 11:14:13;;;;;;;19.53;12.13;;;5.40;99.90;;;;;;5045369;28;20051;-73
2023/12/27 11:16:40;;;;;;;21.57;11.63;;;5.40;99.90;;;;;;5028722;28;20057;-73
2023/12/27 11:19:07;;;;;;;21.37;10.70;;;5.40;99.90;;;;;;5034533;28;20056;-72
2023/12/27 11:21:37;;;;;;;23.30;11.30;;;5.40;99.90;;;;;;5034738;28;20041;-73
2023/12/27 11:24:04;;;;;;;25.13;11.73;;;5.40;99.90;;;;;;5023260;28;20126;-76
2023/12/27 11:26:36;;;;;;;25.87;11.87;;;5.40;99.90;;;;;;5042999;28;20479;-73
2023/12/27 11:29:10;;;;;;;21.80;12.00;;;5.40;99.90;;;;;;5038100;28;20124;-73
2023/12/27 11:31:41;;;;;;;18.90;11.10;;;5.40;99.90;;;;;;5041801;28;20045;-73
2023/12/27 11:34:07;;;;;;;25.57;12.27;;;5.40;99.90;;;;;;5041874;28;20032;-74
2023/12/27 11:36:33;;;;;;;22.83;11.50;;;5.40;99.90;;;;;;5018852;28;20519;-74
2023/12/27 11:39:14;;;;;;;22.40;12.93;;;5.40;99.90;;;;;;5043799;28;20121;-74
2023/12/27 11:41:40;;;;;;;25.20;13.60;;;5.40;99.90;;;;;;5025613;28;20228;-74
2023/12/27 11:44:07;;;;;;;25.40;13.07;;;5.40;99.90;;;;;;5020192;28;20150;-74
2023/12/27 11:46:33;;;;;;;27.10;16.77;;;5.40;99.90;;;;;;5027923;28;20599;-74
2023/12/27 11:49:00;;;;;;;35.90;19.20;;;5.40;99.90;;;;;;5035189;28;20049;-75
2023/12/27 11:51:32;;;;;;;33.23;18.27;;;5.40;99.90;;;;;;5048184;28;20072;-75
2023/12/27 11:53:59;;;;;;;29.73;16.83;;;5.40;99.90;;;;;;5004889;28;20061;-78
2023/12/27 11:56:32;;;;;;;28.57;16.60;;;5.40;99.90;;;;;;5039023;28;20071;-78
2023/12/27 11:59:06;;;;;;;27.10;14.23;;;5.50;99.90;;;;;;5041665;28;20128;-76
2023/12/27 12:01:40;;;;;;;32.27;18.30;;;5.50;99.90;;;;;;5043594;28;20037;-76
2023/12/27 12:04:24;;;;;;;25.50;14.57;;;5.50;99.90;;;;;;5039105;28;20037;-78
2023/12/27 12:06:55;;;;;;;27.27;15.10;;;5.50;99.90;;;;;;5038718;28;20053;-78
2023/12/27 12:09:39;;;;;;;28.30;15.52;;;5.50;99.90;;;;;;5031250;28;20065;-78
2023/12/27 12:12:19;;;;;;;24.37;15.50;;;5.50;99.90;;;;;;5015597;28;20140;-76
2023/12/27 12:14:45;;;;;;;29.67;17.80;;;5.50;99.90;;;;;;5032378;28;20046;-78
2023/12/27 12:17:13;;;;;;;29.30;17.47;;;5.50;99.90;;;;;;5036851;28;20133;-77
2023/12/27 12:19:39;;;;;;;28.77;15.83;;;5.50;99.90;;;;;;5039532;28;20049;-77
2023/12/27 12:22:05;;;;;;;26.73;16.33;;;5.50;99.90;;;;;;5030383;28;20520;-77
2023/12/27 12:24:34;;;;;;;27.90;17.30;;;5.60;99.90;;;;;;5033449;28;20521;-77
2023/12/27 12:27:01;;;;;;;24.73;16.77;;;5.60;99.90;;;;;;5036073;28;20036;-77
2023/12/27 12:29:27;;;;;;;27.80;16.90;;;5.60;99.90;;;;;;5035655;28;20045;-77
2023/12/27 12:31:54;;;;;;;32.57;18.07;;;5.60;99.90;;;;;;5044230;28;20055;-76
2023/12/27 12:34:24;;;;;;;29.17;19.43;;;5.60;99.90;;;;;;5028056;28;20075;-76
2023/12/27 12:36:50;;;;;;;34.47;19.77;;;5.60;99.90;;;;;;5037098;28;20083;-76
2023/12/27 12:39:18;;;;;;;29.43;19.03;;;5.60;99.90;;;;;;5043104;28;20109;-76